createdAt,value
2023-05-18T00:01:06.402Z,49.20
2023-05-18T00:02:16.302Z,48.39
2023-05-18T00:05:44.841Z,48.31
2023-05-18T00:08:41.486Z,48.34
2023-05-18T00:15:25.191Z,48.53
2023-05-18T00:51:17.285Z,48.89
2023-05-18T00:59:25.474Z,49.04
2023-05-18T01:02:16.118Z,49.31
2023-05-18T01:05:31.910Z,49.67
2023-05-18T01:08:51.753Z,49.64
2023-05-18T01:12:08.896Z,50.85
2023-05-18T01:15:45.702Z,50.15
2023-05-18T01:19:09.610Z,50.77
2023-05-18T01:22:49.956Z,50.77
2023-05-18T01:25:43.700Z,50.11
2023-05-18T01:29:10.820Z,50.37
2023-05-18T01:32:10.892Z,50.26
2023-05-18T01:35:03.404Z,50.06
2023-05-18T01:37:51.754Z,50.36
2023-05-18T01:40:53.900Z,50.18
2023-05-18T01:44:14.612Z,50.15
2023-05-18T01:47:35.852Z,50.69
2023-05-18T01:50:44.078Z,50.29
2023-05-18T01:53:50.286Z,50.35
2023-05-18T01:56:47.111Z,50.08
2023-05-18T01:59:37.705Z,50.22
2023-05-18T02:02:54.496Z,50.28
2023-05-18T02:09:13.391Z,50.59
2023-05-18T02:12:13.429Z,50.75
2023-05-18T02:15:09.209Z,51.47
2023-05-18T02:18:17.771Z,50.52
2023-05-18T02:21:26.444Z,50.63
2023-05-18T02:24:21.199Z,50.67
2023-05-18T02:27:28.971Z,50.99
2023-05-18T02:30:40.309Z,50.72
2023-05-18T02:33:48.793Z,50.86
2023-05-18T02:40:25.122Z,51.01
2023-05-18T02:43:25.717Z,50.86
2023-05-18T02:46:24.852Z,51.02
2023-05-18T02:49:28.365Z,50.86
2023-05-18T02:52:55.986Z,51.09
2023-05-18T02:55:57.465Z,51.08
2023-05-18T02:59:01.105Z,50.78
2023-05-18T03:02:03.508Z,51.09
2023-05-18T03:04:54.793Z,51.07
2023-05-18T03:07:46.398Z,51.00
2023-05-18T03:10:38.805Z,51.07
2023-05-18T03:13:35.775Z,51.18
2023-05-18T03:16:32.772Z,50.89
2023-05-18T03:19:33.788Z,50.79
2023-05-18T03:22:37.672Z,51.08
2023-05-18T03:26:02.564Z,51.14
2023-05-18T03:29:48.020Z,51.07
2023-05-18T03:32:41.241Z,51.28
2023-05-18T03:35:55.687Z,51.12
2023-05-18T03:38:48.441Z,51.07
2023-05-18T03:41:41.335Z,51.15
2023-05-18T03:44:46.448Z,51.13
2023-05-18T03:47:37.945Z,51.07
2023-05-18T03:50:29.551Z,51.14
2023-05-18T03:53:29.198Z,51.22
2023-05-18T03:56:44.723Z,51.08
2023-05-18T03:59:38.000Z,51.05
2023-05-18T04:02:33.654Z,51.21
2023-05-18T04:05:42.025Z,51.21
2023-05-18T04:09:14.073Z,51.11
2023-05-18T04:12:12.823Z,50.92
2023-05-18T04:19:08.148Z,51.15
2023-05-18T04:21:58.710Z,51.01
2023-05-18T04:24:54.404Z,50.96
2023-05-18T04:27:51.845Z,51.03
2023-05-18T04:30:46.600Z,50.94
2023-05-18T04:34:06.063Z,51.06
2023-05-18T04:37:13.796Z,50.96
2023-05-18T04:40:13.191Z,50.89
2023-05-18T04:43:12.620Z,50.99
2023-05-18T04:54:56.977Z,51.09
2023-05-18T04:58:13.457Z,51.01
2023-05-18T05:02:14.024Z,50.95
2023-05-18T05:05:23.508Z,50.92
2023-05-18T05:19:48.096Z,51.06
2023-05-18T05:32:26.452Z,50.99
2023-05-18T05:40:04.381Z,50.67
2023-05-18T05:42:59.167Z,50.64
2023-05-18T05:46:07.708Z,50.71
2023-05-18T05:49:26.645Z,50.82
2023-05-18T05:52:27.595Z,50.55
2023-05-18T05:55:23.928Z,50.46
2023-05-18T05:58:16.221Z,50.36
2023-05-18T06:01:47.064Z,50.26
2023-05-18T06:05:16.790Z,50.27
2023-05-18T06:08:09.454Z,50.20
2023-05-18T06:14:45.963Z,49.76
2023-05-18T06:18:30.609Z,50.02
2023-05-18T06:22:08.901Z,49.81
2023-05-18T06:25:53.283Z,49.74
2023-05-18T06:30:19.768Z,49.68
2023-05-18T06:33:50.817Z,49.81
2023-05-18T06:40:57.022Z,49.65
2023-05-18T06:45:08.119Z,49.82
2023-05-18T06:48:56.120Z,49.74
2023-05-18T06:55:39.796Z,49.75
2023-05-18T06:58:47.755Z,49.52
2023-05-18T07:01:50.404Z,49.75
2023-05-18T07:04:41.990Z,49.72
2023-05-18T07:08:26.088Z,49.63
2023-05-18T07:11:13.217Z,49.65
2023-05-18T07:15:13.169Z,49.41
2023-05-18T07:18:00.050Z,49.34
2023-05-18T07:24:18.144Z,49.17
2023-05-18T07:31:59.596Z,49.33
2023-05-18T07:35:09.846Z,49.30
2023-05-18T07:41:32.183Z,49.24
2023-05-18T07:44:52.695Z,48.85
2023-05-18T07:51:20.113Z,49.14
2023-05-18T07:54:09.333Z,49.03
2023-05-18T07:57:00.337Z,48.71
2023-05-18T08:00:32.240Z,49.17
2023-05-18T08:03:32.305Z,49.00
2023-05-18T08:06:18.840Z,48.99
2023-05-18T08:12:41.702Z,49.44
2023-05-18T08:15:28.296Z,49.94
2023-05-18T08:18:42.316Z,49.52
2023-05-18T08:29:12.398Z,49.17
2023-05-18T08:44:12.451Z,49.48
2023-05-18T09:10:57.860Z,49.68
2023-05-18T09:14:16.637Z,49.35
2023-05-18T09:17:22.177Z,49.43
2023-05-18T09:20:18.901Z,49.27
2023-05-18T09:23:12.591Z,49.31
2023-05-18T09:26:10.502Z,49.05
2023-05-18T09:29:28.097Z,49.29
2023-05-18T09:32:25.037Z,49.18
2023-05-18T09:35:37.616Z,49.20
2023-05-18T09:41:49.467Z,49.30
2023-05-18T09:44:54.162Z,49.05
2023-05-18T09:48:07.878Z,49.13
2023-05-18T09:51:27.535Z,48.94
2023-05-18T09:55:17.456Z,48.90
2023-05-18T10:02:17.962Z,48.81
2023-05-18T10:05:36.035Z,49.11
2023-05-18T10:08:23.719Z,49.15
2023-05-18T10:11:10.562Z,49.09
2023-05-18T10:13:58.872Z,48.90
2023-05-18T10:16:45.357Z,48.85
2023-05-18T10:19:35.971Z,49.09
2023-05-18T10:22:23.563Z,49.05
2023-05-18T10:28:18.626Z,49.02
2023-05-18T10:31:27.266Z,49.20
2023-05-18T10:39:37.246Z,49.15
2023-05-18T10:43:33.308Z,49.13
2023-05-18T10:46:30.815Z,49.17
2023-05-18T10:49:18.241Z,49.17
2023-05-18T10:52:05.229Z,49.17
2023-05-18T10:55:35.209Z,49.37
2023-05-18T11:08:51.506Z,49.17
2023-05-18T11:21:19.391Z,49.26
2023-05-18T11:29:14.089Z,49.13
2023-05-18T11:32:04.829Z,49.29
2023-05-18T11:35:05.589Z,49.15
2023-05-18T11:38:52.157Z,49.09
2023-05-18T11:42:14.844Z,49.05
2023-05-18T11:51:34.022Z,49.31
2023-05-18T11:55:32.396Z,49.57
2023-05-18T20:10:56.980Z,50.70
2023-05-18T20:14:21.326Z,50.71
2023-05-18T20:17:11.632Z,50.63
2023-05-18T20:20:05.026Z,50.75
2023-05-18T20:22:51.990Z,50.55
2023-05-18T20:25:51.037Z,50.43
2023-05-18T20:28:59.351Z,50.45
2023-05-18T20:31:52.202Z,50.48
2023-05-18T20:34:49.439Z,50.42
2023-05-18T20:37:57.220Z,50.52
2023-05-18T20:40:55.326Z,50.36
2023-05-18T20:43:48.304Z,50.47
2023-05-18T20:47:26.240Z,50.29
2023-05-18T20:50:31.226Z,50.44
2023-05-18T20:54:14.159Z,50.37
2023-05-18T20:57:04.790Z,50.54
2023-05-18T20:59:58.154Z,50.47
2023-05-18T21:02:58.287Z,50.50
2023-05-18T21:10:18.059Z,50.49
2023-05-18T21:13:09.161Z,50.78
2023-05-18T21:15:57.037Z,50.69
2023-05-18T21:18:48.404Z,50.86
2023-05-18T21:21:46.277Z,50.87
2023-05-18T21:24:32.980Z,50.83
2023-05-18T21:27:19.176Z,50.92
2023-05-18T21:30:08.523Z,50.96
2023-05-18T21:32:58.236Z,50.91
2023-05-18T21:35:44.550Z,51.02
2023-05-18T21:38:31.334Z,51.08
2023-05-18T21:41:18.251Z,51.02
2023-05-18T21:44:05.200Z,51.00
2023-05-18T21:46:57.056Z,51.16
2023-05-18T21:49:44.367Z,50.81
2023-05-18T21:52:33.278Z,50.98
2023-05-18T21:55:19.959Z,50.92
2023-05-18T21:58:06.540Z,51.13
2023-05-18T22:00:52.947Z,50.94
2023-05-18T22:03:46.918Z,50.92
2023-05-18T22:06:34.238Z,50.87
2023-05-18T22:09:22.154Z,50.78
2023-05-18T22:12:11.605Z,50.94
2023-05-18T22:14:58.280Z,50.81
2023-05-18T22:17:46.211Z,50.73
2023-05-18T22:20:33.065Z,50.86
2023-05-18T22:23:19.973Z,50.86
2023-05-18T22:26:06.372Z,50.70
2023-05-18T22:28:52.705Z,50.77
2023-05-18T22:31:39.133Z,50.82
2023-05-18T22:34:25.437Z,50.82
2023-05-18T22:37:11.841Z,50.59
2023-05-18T22:39:58.244Z,50.59
2023-05-18T22:42:45.090Z,50.86
2023-05-18T22:45:37.604Z,50.76
2023-05-18T22:48:26.382Z,50.70
2023-05-18T22:51:12.708Z,50.71
2023-05-18T22:53:59.237Z,50.81
2023-05-18T22:56:46.585Z,50.42
2023-05-18T22:59:33.816Z,50.66
2023-05-18T23:02:20.059Z,50.91
2023-05-18T23:05:07.126Z,50.82
2023-05-18T23:07:58.063Z,50.59
2023-05-18T23:10:45.258Z,50.81
2023-05-18T23:13:33.028Z,50.74
2023-05-18T23:16:20.751Z,50.81
2023-05-18T23:19:09.665Z,50.87
2023-05-18T23:21:56.649Z,50.91
2023-05-18T23:24:43.610Z,50.84
2023-05-18T23:27:30.312Z,50.76
2023-05-18T23:30:16.839Z,50.87
2023-05-18T23:33:03.813Z,50.83
2023-05-18T23:35:51.103Z,50.85
2023-05-18T23:38:38.137Z,50.73
2023-05-18T23:41:35.196Z,50.76
2023-05-18T23:44:31.635Z,50.86
2023-05-18T23:47:18.909Z,50.73
2023-05-18T23:50:06.598Z,50.80
2023-05-18T23:52:54.365Z,50.83
2023-05-18T23:55:41.789Z,50.73
2023-05-18T23:58:32.439Z,50.94
